KLM789 TNCM-TNCC
Flight info
| Callsign | KLM789 |
|---|---|
| Flight time | 1h 28m |
| Altitude | 40000 |
| Route | MODOR2 DANDE M576 MILOK UM576 ACORA ACORA1B |
| Aircraft | A332/H-SDE2E3FGHIJ3J5P2RWXYZ/LB1D1 |
Departure
| Time | 2026-04-16 21:23 |
|---|---|
| Airport | Princess Juliana International Airport (TNCM) |
Arrival
| Time | 2026-04-16 22:51 |
|---|---|
| Airport | Hato International Airport (TNCC) |
| Time | Latitude | Longitude | Altitude | Speed | Heading |
|---|---|---|---|---|---|
| 2026-04-16 20:41 | 18.04323 | -63.11363 | 32 ft | 0 kts | 351° |
| 2026-04-16 21:06 | 18.04318 | -63.11362 | 32 ft | 3 kts | 353° |
| 2026-04-16 21:06 | 18.04292 | -63.11363 | 31 ft | 4 kts | 16° |
| 2026-04-16 21:06 | 18.04268 | -63.11374 | 30 ft | 4 kts | 37° |
| 2026-04-16 21:07 | 18.04248 | -63.11393 | 30 ft | 4 kts | 53° |
| 2026-04-16 21:07 | 18.04234 | -63.11417 | 30 ft | 4 kts | 67° |
| 2026-04-16 21:07 | 18.04227 | -63.11440 | 31 ft | 1 kts | 81° |
| 2026-04-16 21:13 | 18.04228 | -63.11436 | 32 ft | 2 kts | 81° |
| 2026-04-16 21:13 | 18.04231 | -63.11413 | 32 ft | 3 kts | 81° |
| 2026-04-16 21:13 | 18.04236 | -63.11379 | 32 ft | 6 kts | 81° |
| 2026-04-16 21:13 | 18.04226 | -63.11330 | 31 ft | 8 kts | 128° |
| 2026-04-16 21:14 | 18.04171 | -63.11305 | 31 ft | 9 kts | 170° |
| 2026-04-16 21:14 | 18.04137 | -63.11299 | 32 ft | 2 kts | 171° |
| 2026-04-16 21:14 | 18.04133 | -63.11298 | 32 ft | 0 kts | 171° |
| 2026-04-16 21:17 | 18.04114 | -63.11295 | 31 ft | 5 kts | 171° |
| 2026-04-16 21:17 | 18.04063 | -63.11293 | 30 ft | 8 kts | 198° |
| 2026-04-16 21:18 | 18.04033 | -63.11336 | 31 ft | 9 kts | 250° |
| 2026-04-16 21:18 | 18.04019 | -63.11412 | 31 ft | 12 kts | 261° |
| 2026-04-16 21:18 | 18.04003 | -63.11515 | 31 ft | 16 kts | 261° |
| 2026-04-16 21:18 | 18.03985 | -63.11642 | 31 ft | 19 kts | 261° |
| 2026-04-16 21:19 | 18.03964 | -63.11787 | 31 ft | 18 kts | 262° |
| 2026-04-16 21:19 | 18.03981 | -63.11906 | 31 ft | 12 kts | 288° |
| 2026-04-16 21:19 | 18.03970 | -63.11952 | 31 ft | 6 kts | 205° |
| 2026-04-16 21:19 | 18.03953 | -63.11942 | 31 ft | 2 kts | 122° |
| 2026-04-16 21:20 | 18.03950 | -63.11924 | 31 ft | 4 kts | 103° |
| 2026-04-16 21:20 | 18.03951 | -63.11891 | 31 ft | 4 kts | 84° |
| 2026-04-16 21:20 | 18.03951 | -63.11889 | 31 ft | 0 kts | 83° |
| 2026-04-16 21:22 | 18.03952 | -63.11877 | 31 ft | 8 kts | 83° |
| 2026-04-16 21:22 | 18.03987 | -63.11618 | 31 ft | 68 kts | 81° |
| 2026-04-16 21:22 | 18.04087 | -63.10926 | 31 ft | 124 kts | 81° |
| 2026-04-16 21:23 | 18.04229 | -63.09937 | 387 ft | 142 kts | 82° |
| 2026-04-16 21:23 | 18.04089 | -63.08942 | 967 ft | 142 kts | 132° |
| 2026-04-16 21:23 | 18.03241 | -63.08484 | 1715 ft | 137 kts | 158° |
| 2026-04-16 21:23 | 18.02337 | -63.08232 | 2193 ft | 133 kts | 160° |
| 2026-04-16 21:24 | 18.01389 | -63.08063 | 2512 ft | 145 kts | 165° |
| 2026-04-16 21:24 | 18.00323 | -63.07898 | 2740 ft | 165 kts | 166° |
| 2026-04-16 21:24 | 17.99126 | -63.07688 | 2960 ft | 183 kts | 165° |
| 2026-04-16 21:24 | 17.97841 | -63.07453 | 3238 ft | 198 kts | 165° |
| 2026-04-16 21:25 | 17.96412 | -63.07181 | 3424 ft | 220 kts | 165° |
| 2026-04-16 21:25 | 17.94799 | -63.06990 | 3614 ft | 247 kts | 179° |
| 2026-04-16 21:25 | 17.93078 | -63.07481 | 4031 ft | 268 kts | 208° |
| 2026-04-16 21:25 | 17.91694 | -63.08831 | 4735 ft | 271 kts | 228° |
| 2026-04-16 21:26 | 17.90535 | -63.10387 | 5479 ft | 274 kts | 231° |
| 2026-04-16 21:26 | 17.89392 | -63.11993 | 6037 ft | 282 kts | 231° |
| 2026-04-16 21:26 | 17.88215 | -63.13657 | 6668 ft | 286 kts | 231° |
| 2026-04-16 21:26 | 17.87015 | -63.15350 | 7322 ft | 289 kts | 232° |
| 2026-04-16 21:27 | 17.85812 | -63.17041 | 8050 ft | 290 kts | 232° |
| 2026-04-16 21:27 | 17.84601 | -63.18743 | 8796 ft | 292 kts | 232° |
| 2026-04-16 21:27 | 17.83372 | -63.20466 | 9502 ft | 296 kts | 232° |
| 2026-04-16 21:27 | 17.82124 | -63.22213 | 10163 ft | 300 kts | 232° |
| 2026-04-16 21:28 | 17.80850 | -63.23997 | 10584 ft | 313 kts | 232° |
| 2026-04-16 21:28 | 17.79510 | -63.25873 | 10852 ft | 330 kts | 232° |
| 2026-04-16 21:28 | 17.78100 | -63.27846 | 11167 ft | 343 kts | 232° |
| 2026-04-16 21:28 | 17.76649 | -63.29875 | 11661 ft | 349 kts | 233° |
| 2026-04-16 21:29 | 17.75204 | -63.31896 | 12255 ft | 351 kts | 233° |
| 2026-04-16 21:29 | 17.73737 | -63.33948 | 12867 ft | 353 kts | 233° |
| 2026-04-16 21:29 | 17.72255 | -63.36019 | 13440 ft | 355 kts | 233° |
| 2026-04-16 21:29 | 17.70767 | -63.38098 | 14007 ft | 357 kts | 233° |
| 2026-04-16 21:30 | 17.69268 | -63.40191 | 14532 ft | 359 kts | 233° |
| 2026-04-16 21:30 | 17.67771 | -63.42281 | 15078 ft | 359 kts | 233° |
| 2026-04-16 21:30 | 17.66268 | -63.44379 | 15573 ft | 361 kts | 233° |
| 2026-04-16 21:30 | 17.64765 | -63.46477 | 16073 ft | 363 kts | 233° |
| 2026-04-16 21:31 | 17.63241 | -63.48602 | 16652 ft | 362 kts | 233° |
| 2026-04-16 21:31 | 17.61723 | -63.50719 | 17099 ft | 365 kts | 233° |
| 2026-04-16 21:31 | 17.60188 | -63.52858 | 17523 ft | 368 kts | 233° |
| 2026-04-16 21:31 | 17.58667 | -63.54978 | 18022 ft | 368 kts | 233° |
| 2026-04-16 21:32 | 17.57116 | -63.57139 | 18390 ft | 372 kts | 233° |
| 2026-04-16 21:32 | 17.55550 | -63.59319 | 18737 ft | 374 kts | 233° |
| 2026-04-16 21:32 | 17.53981 | -63.61504 | 19112 ft | 376 kts | 233° |
| 2026-04-16 21:32 | 17.52400 | -63.63704 | 19468 ft | 378 kts | 233° |
| 2026-04-16 21:33 | 17.50796 | -63.65888 | 19870 ft | 379 kts | 231° |
| 2026-04-16 21:33 | 17.49644 | -63.67265 | 20133 ft | 379 kts | 229° |
| 2026-04-16 21:33 | 17.47198 | -63.69908 | 20660 ft | 381 kts | 226° |
| 2026-04-16 21:33 | 17.45935 | -63.71195 | 20917 ft | 381 kts | 225° |
| 2026-04-16 21:34 | 17.45071 | -63.72063 | 21077 ft | 382 kts | 225° |
| 2026-04-16 21:34 | 17.43142 | -63.73981 | 21449 ft | 382 kts | 225° |
| 2026-04-16 21:34 | 17.40575 | -63.76534 | 21947 ft | 384 kts | 225° |
| 2026-04-16 21:34 | 17.39265 | -63.77847 | 22185 ft | 384 kts | 225° |
| 2026-04-16 21:35 | 17.37359 | -63.79764 | 22523 ft | 385 kts | 226° |
| 2026-04-16 21:35 | 17.35424 | -63.81723 | 22866 ft | 387 kts | 226° |
| 2026-04-16 21:35 | 17.33486 | -63.83689 | 23208 ft | 388 kts | 226° |
| 2026-04-16 21:35 | 17.31547 | -63.85661 | 23550 ft | 389 kts | 226° |
| 2026-04-16 21:36 | 17.29598 | -63.87642 | 23826 ft | 390 kts | 226° |
| 2026-04-16 21:36 | 17.27670 | -63.89603 | 24101 ft | 391 kts | 226° |
| 2026-04-16 21:36 | 17.25719 | -63.91584 | 24387 ft | 392 kts | 226° |
| 2026-04-16 21:36 | 17.23756 | -63.93578 | 24668 ft | 393 kts | 226° |
| 2026-04-16 21:37 | 17.21792 | -63.95570 | 24953 ft | 394 kts | 226° |
| 2026-04-16 21:37 | 17.19820 | -63.97571 | 25224 ft | 395 kts | 226° |
| 2026-04-16 21:37 | 17.17841 | -63.99578 | 25484 ft | 396 kts | 226° |
| 2026-04-16 21:37 | 17.15862 | -64.01584 | 25767 ft | 397 kts | 226° |
| 2026-04-16 21:38 | 17.13872 | -64.03599 | 26032 ft | 398 kts | 226° |
| 2026-04-16 21:38 | 17.11873 | -64.05624 | 26300 ft | 399 kts | 226° |
| 2026-04-16 21:38 | 17.09901 | -64.07619 | 26543 ft | 401 kts | 226° |
| 2026-04-16 21:38 | 17.07890 | -64.09653 | 26803 ft | 402 kts | 226° |
| 2026-04-16 21:39 | 17.05877 | -64.11688 | 27063 ft | 403 kts | 226° |
| 2026-04-16 21:39 | 17.03859 | -64.13729 | 27322 ft | 404 kts | 226° |
| 2026-04-16 21:39 | 17.01829 | -64.15781 | 27586 ft | 405 kts | 226° |
| 2026-04-16 21:39 | 16.99801 | -64.17830 | 27836 ft | 406 kts | 226° |
| 2026-04-16 21:40 | 16.97766 | -64.19885 | 28096 ft | 407 kts | 226° |
| 2026-04-16 21:40 | 16.95724 | -64.21948 | 28360 ft | 408 kts | 226° |
| 2026-04-16 21:40 | 16.93704 | -64.23987 | 28616 ft | 409 kts | 226° |
| 2026-04-16 21:40 | 16.91655 | -64.26053 | 28868 ft | 410 kts | 226° |
| 2026-04-16 21:41 | 16.89602 | -64.28125 | 29102 ft | 411 kts | 226° |
| 2026-04-16 21:41 | 16.87538 | -64.30207 | 29349 ft | 412 kts | 226° |
| 2026-04-16 21:41 | 16.85477 | -64.32284 | 29590 ft | 413 kts | 226° |
| 2026-04-16 21:41 | 16.83398 | -64.34380 | 29821 ft | 414 kts | 226° |
| 2026-04-16 21:42 | 16.81322 | -64.36472 | 30061 ft | 415 kts | 226° |
| 2026-04-16 21:42 | 16.79239 | -64.38569 | 30225 ft | 417 kts | 226° |
| 2026-04-16 21:42 | 16.77173 | -64.40650 | 30420 ft | 418 kts | 226° |
| 2026-04-16 21:42 | 16.75074 | -64.42762 | 30632 ft | 418 kts | 226° |
| 2026-04-16 21:43 | 16.72979 | -64.44870 | 30824 ft | 419 kts | 226° |
| 2026-04-16 21:43 | 16.70878 | -64.46983 | 31042 ft | 419 kts | 226° |
| 2026-04-16 21:43 | 16.68778 | -64.49095 | 31274 ft | 419 kts | 226° |
| 2026-04-16 21:43 | 16.66672 | -64.51212 | 31507 ft | 420 kts | 226° |
| 2026-04-16 21:44 | 16.64570 | -64.53324 | 31758 ft | 421 kts | 226° |
| 2026-04-16 21:44 | 16.62460 | -64.55444 | 32050 ft | 421 kts | 226° |
| 2026-04-16 21:44 | 16.60351 | -64.57561 | 32465 ft | 418 kts | 226° |
| 2026-04-16 21:44 | 16.58262 | -64.59657 | 32933 ft | 415 kts | 226° |
| 2026-04-16 21:45 | 16.56189 | -64.61736 | 33373 ft | 412 kts | 226° |
| 2026-04-16 21:45 | 16.54154 | -64.63778 | 33826 ft | 409 kts | 226° |
| 2026-04-16 21:45 | 16.52110 | -64.65828 | 34242 ft | 406 kts | 226° |
| 2026-04-16 21:45 | 16.50078 | -64.67865 | 34673 ft | 402 kts | 226° |
| 2026-04-16 21:46 | 16.48075 | -64.69872 | 35172 ft | 397 kts | 226° |
| 2026-04-16 21:46 | 16.46100 | -64.71851 | 35656 ft | 391 kts | 226° |
| 2026-04-16 21:46 | 16.44146 | -64.73807 | 36132 ft | 386 kts | 226° |
| 2026-04-16 21:46 | 16.42220 | -64.75737 | 36567 ft | 382 kts | 226° |
| 2026-04-16 21:47 | 16.40329 | -64.77631 | 36981 ft | 379 kts | 226° |
| 2026-04-16 21:47 | 16.38438 | -64.79524 | 37373 ft | 375 kts | 226° |
| 2026-04-16 21:47 | 16.36565 | -64.81399 | 37781 ft | 372 kts | 226° |
| 2026-04-16 21:47 | 16.34704 | -64.83261 | 38175 ft | 368 kts | 226° |
| 2026-04-16 21:48 | 16.32865 | -64.85101 | 38565 ft | 365 kts | 226° |
| 2026-04-16 21:48 | 16.31038 | -64.86927 | 38887 ft | 362 kts | 226° |
| 2026-04-16 21:48 | 16.29222 | -64.88744 | 39069 ft | 363 kts | 226° |
| 2026-04-16 21:48 | 16.27398 | -64.90568 | 39198 ft | 364 kts | 226° |
| 2026-04-16 21:49 | 16.25564 | -64.92402 | 39359 ft | 365 kts | 226° |
| 2026-04-16 21:49 | 16.23726 | -64.94239 | 39504 ft | 366 kts | 226° |
| 2026-04-16 21:49 | 16.21912 | -64.96050 | 39666 ft | 366 kts | 226° |
| 2026-04-16 21:49 | 16.20066 | -64.97891 | 39844 ft | 367 kts | 226° |
| 2026-04-16 21:50 | 16.18219 | -64.99734 | 39926 ft | 369 kts | 226° |
| 2026-04-16 21:50 | 16.14485 | -65.03457 | 39964 ft | 377 kts | 226° |
| 2026-04-16 21:51 | 16.10650 | -65.07281 | 39966 ft | 386 kts | 226° |
| 2026-04-16 21:51 | 16.06732 | -65.11184 | 39965 ft | 394 kts | 226° |
| 2026-04-16 21:52 | 16.02757 | -65.15138 | 39963 ft | 395 kts | 226° |
| 2026-04-16 21:52 | 15.98774 | -65.19097 | 39963 ft | 395 kts | 226° |
| 2026-04-16 21:53 | 15.94830 | -65.23018 | 39966 ft | 395 kts | 226° |
| 2026-04-16 21:53 | 15.90859 | -65.26963 | 39963 ft | 395 kts | 226° |
| 2026-04-16 21:54 | 15.86878 | -65.30916 | 39964 ft | 395 kts | 225° |
| 2026-04-16 21:54 | 15.82890 | -65.34873 | 39963 ft | 396 kts | 225° |
| 2026-04-16 21:55 | 15.78931 | -65.38799 | 39957 ft | 396 kts | 225° |
| 2026-04-16 21:55 | 15.74941 | -65.42754 | 39958 ft | 396 kts | 225° |
| 2026-04-16 21:56 | 15.70952 | -65.46706 | 39960 ft | 396 kts | 225° |
| 2026-04-16 21:56 | 15.66987 | -65.50638 | 39960 ft | 396 kts | 225° |
| 2026-04-16 21:57 | 15.63002 | -65.54600 | 39961 ft | 396 kts | 225° |
| 2026-04-16 21:57 | 15.59022 | -65.58557 | 39945 ft | 396 kts | 225° |
| 2026-04-16 21:58 | 15.55050 | -65.62504 | 39964 ft | 399 kts | 225° |
| 2026-04-16 21:58 | 15.51044 | -65.66481 | 39957 ft | 398 kts | 225° |
| 2026-04-16 21:59 | 15.47049 | -65.70443 | 39952 ft | 397 kts | 225° |
| 2026-04-16 21:59 | 15.43057 | -65.74403 | 39952 ft | 397 kts | 225° |
| 2026-04-16 22:00 | 15.39058 | -65.78365 | 39952 ft | 397 kts | 225° |
| 2026-04-16 22:00 | 15.35083 | -65.82303 | 39955 ft | 397 kts | 225° |
| 2026-04-16 22:01 | 15.31086 | -65.86260 | 39947 ft | 397 kts | 225° |
| 2026-04-16 22:01 | 15.27063 | -65.90215 | 39953 ft | 400 kts | 225° |
| 2026-04-16 22:02 | 15.23012 | -65.94149 | 39945 ft | 402 kts | 225° |
| 2026-04-16 22:02 | 15.18935 | -65.98098 | 39952 ft | 400 kts | 225° |
| 2026-04-16 22:03 | 15.14876 | -66.02033 | 39952 ft | 399 kts | 225° |
| 2026-04-16 22:03 | 15.10815 | -66.05971 | 39943 ft | 399 kts | 225° |
| 2026-04-16 22:04 | 15.06778 | -66.09885 | 39939 ft | 399 kts | 225° |
| 2026-04-16 22:04 | 15.02695 | -66.13794 | 39944 ft | 400 kts | 224° |
| 2026-04-16 22:05 | 14.98565 | -66.17662 | 39941 ft | 401 kts | 224° |
| 2026-04-16 22:05 | 14.94426 | -66.21525 | 39943 ft | 403 kts | 224° |
| 2026-04-16 22:06 | 14.90261 | -66.25417 | 39946 ft | 403 kts | 224° |
| 2026-04-16 22:06 | 14.84032 | -66.31241 | 39938 ft | 401 kts | 224° |
| 2026-04-16 22:07 | 14.79894 | -66.35111 | 39938 ft | 401 kts | 224° |
| 2026-04-16 22:07 | 14.75770 | -66.38964 | 39938 ft | 401 kts | 224° |
| 2026-04-16 22:08 | 14.71621 | -66.42839 | 39922 ft | 401 kts | 224° |
| 2026-04-16 22:08 | 14.67493 | -66.46693 | 39938 ft | 403 kts | 224° |
| 2026-04-16 22:09 | 14.63324 | -66.50582 | 39933 ft | 404 kts | 224° |
| 2026-04-16 22:09 | 14.59150 | -66.54473 | 39934 ft | 404 kts | 224° |
| 2026-04-16 22:10 | 14.54979 | -66.58360 | 39938 ft | 404 kts | 224° |
| 2026-04-16 22:10 | 14.50819 | -66.62234 | 39932 ft | 402 kts | 224° |
| 2026-04-16 22:11 | 14.46666 | -66.66100 | 39931 ft | 402 kts | 224° |
| 2026-04-16 22:11 | 14.42694 | -66.70100 | 39931 ft | 401 kts | 226° |
| 2026-04-16 22:12 | 14.38770 | -66.74200 | 39930 ft | 403 kts | 226° |
| 2026-04-16 22:12 | 14.34828 | -66.78314 | 39928 ft | 403 kts | 226° |
| 2026-04-16 22:13 | 14.30870 | -66.82438 | 39931 ft | 404 kts | 226° |
| 2026-04-16 22:13 | 14.26942 | -66.86527 | 39927 ft | 404 kts | 226° |
| 2026-04-16 22:14 | 14.22988 | -66.90641 | 39927 ft | 403 kts | 226° |
| 2026-04-16 22:14 | 14.19036 | -66.94750 | 39925 ft | 403 kts | 226° |
| 2026-04-16 22:15 | 14.15087 | -66.98855 | 39922 ft | 403 kts | 226° |
| 2026-04-16 22:15 | 14.11136 | -67.02959 | 39923 ft | 403 kts | 226° |
| 2026-04-16 22:16 | 14.07208 | -67.07038 | 39913 ft | 404 kts | 226° |
| 2026-04-16 22:16 | 14.03241 | -67.11154 | 39915 ft | 404 kts | 226° |
| 2026-04-16 22:17 | 13.99276 | -67.15266 | 39918 ft | 404 kts | 226° |
| 2026-04-16 22:17 | 13.95335 | -67.19352 | 39913 ft | 404 kts | 226° |
| 2026-04-16 22:18 | 13.91372 | -67.23458 | 39926 ft | 404 kts | 226° |
| 2026-04-16 22:18 | 13.87392 | -67.27580 | 39929 ft | 405 kts | 226° |
| 2026-04-16 22:19 | 13.83418 | -67.31693 | 39925 ft | 406 kts | 226° |
| 2026-04-16 22:19 | 13.79457 | -67.35790 | 39532 ft | 400 kts | 226° |
| 2026-04-16 22:20 | 13.77495 | -67.37819 | 38956 ft | 400 kts | 226° |
| 2026-04-16 22:20 | 13.75531 | -67.39850 | 38351 ft | 400 kts | 225° |
| 2026-04-16 22:20 | 13.73571 | -67.41876 | 37777 ft | 398 kts | 225° |
| 2026-04-16 22:20 | 13.71652 | -67.43858 | 37361 ft | 393 kts | 226° |
| 2026-04-16 22:21 | 13.69728 | -67.45845 | 37020 ft | 387 kts | 226° |
| 2026-04-16 22:21 | 13.67848 | -67.47787 | 36682 ft | 381 kts | 226° |
| 2026-04-16 22:21 | 13.66031 | -67.49750 | 36345 ft | 375 kts | 231° |
| 2026-04-16 22:21 | 13.64476 | -67.51889 | 35972 ft | 372 kts | 235° |
| 2026-04-16 22:22 | 13.63025 | -67.54079 | 35619 ft | 368 kts | 236° |
| 2026-04-16 22:22 | 13.61607 | -67.56251 | 35274 ft | 364 kts | 236° |
| 2026-04-16 22:22 | 13.60198 | -67.58412 | 34861 ft | 362 kts | 236° |
| 2026-04-16 22:22 | 13.58809 | -67.60535 | 34493 ft | 362 kts | 237° |
| 2026-04-16 22:23 | 13.57400 | -67.62688 | 34050 ft | 364 kts | 237° |
| 2026-04-16 22:23 | 13.56442 | -67.64151 | 33699 ft | 365 kts | 237° |
| 2026-04-16 22:23 | 13.54550 | -67.67036 | 33042 ft | 369 kts | 237° |
| 2026-04-16 22:23 | 13.53595 | -67.68491 | 32715 ft | 372 kts | 237° |
| 2026-04-16 22:24 | 13.52140 | -67.70708 | 32201 ft | 376 kts | 237° |
| 2026-04-16 22:24 | 13.50662 | -67.72958 | 31686 ft | 381 kts | 237° |
| 2026-04-16 22:24 | 13.49172 | -67.75227 | 31184 ft | 384 kts | 237° |
| 2026-04-16 22:24 | 13.47671 | -67.77511 | 30840 ft | 385 kts | 237° |
| 2026-04-16 22:25 | 13.46170 | -67.79793 | 30463 ft | 385 kts | 237° |
| 2026-04-16 22:25 | 13.44683 | -67.82056 | 30099 ft | 385 kts | 237° |
| 2026-04-16 22:25 | 13.43182 | -67.84337 | 29668 ft | 385 kts | 237° |
| 2026-04-16 22:25 | 13.41681 | -67.86619 | 29285 ft | 384 kts | 237° |
| 2026-04-16 22:26 | 13.40187 | -67.88889 | 28895 ft | 383 kts | 237° |
| 2026-04-16 22:26 | 13.38694 | -67.91158 | 28491 ft | 382 kts | 237° |
| 2026-04-16 22:26 | 13.37212 | -67.93408 | 28097 ft | 380 kts | 237° |
| 2026-04-16 22:26 | 13.35750 | -67.95629 | 27703 ft | 379 kts | 237° |
| 2026-04-16 22:27 | 13.34273 | -67.97872 | 27305 ft | 378 kts | 237° |
| 2026-04-16 22:27 | 13.32803 | -68.00103 | 26924 ft | 376 kts | 237° |
| 2026-04-16 22:27 | 13.31331 | -68.02336 | 26539 ft | 375 kts | 237° |
| 2026-04-16 22:27 | 13.29870 | -68.04553 | 26151 ft | 374 kts | 237° |
| 2026-04-16 22:28 | 13.28413 | -68.06763 | 25743 ft | 373 kts | 237° |
| 2026-04-16 22:28 | 13.26976 | -68.08942 | 25332 ft | 372 kts | 237° |
| 2026-04-16 22:28 | 13.25526 | -68.11140 | 24954 ft | 371 kts | 237° |
| 2026-04-16 22:28 | 13.24080 | -68.13332 | 24575 ft | 370 kts | 237° |
| 2026-04-16 22:29 | 13.22636 | -68.15520 | 24162 ft | 370 kts | 237° |
| 2026-04-16 22:29 | 13.21196 | -68.17701 | 23767 ft | 368 kts | 237° |
| 2026-04-16 22:29 | 13.19760 | -68.19875 | 23354 ft | 367 kts | 236° |
| 2026-04-16 22:29 | 13.18328 | -68.22045 | 22919 ft | 367 kts | 236° |
| 2026-04-16 22:30 | 13.16899 | -68.24207 | 22534 ft | 365 kts | 236° |
| 2026-04-16 22:30 | 13.15473 | -68.26365 | 22143 ft | 364 kts | 236° |
| 2026-04-16 22:30 | 13.14056 | -68.28509 | 21747 ft | 362 kts | 237° |
| 2026-04-16 22:30 | 13.12645 | -68.30642 | 21339 ft | 360 kts | 237° |
| 2026-04-16 22:31 | 13.11255 | -68.32745 | 20957 ft | 358 kts | 237° |
| 2026-04-16 22:31 | 13.09855 | -68.34862 | 20558 ft | 357 kts | 237° |
| 2026-04-16 22:31 | 13.08460 | -68.36970 | 20178 ft | 355 kts | 237° |
| 2026-04-16 22:31 | 13.07075 | -68.39063 | 19789 ft | 354 kts | 237° |
| 2026-04-16 22:32 | 13.05696 | -68.41147 | 19406 ft | 352 kts | 237° |
| 2026-04-16 22:32 | 13.04322 | -68.43222 | 19008 ft | 351 kts | 237° |
| 2026-04-16 22:32 | 13.02954 | -68.45288 | 18622 ft | 349 kts | 237° |
| 2026-04-16 22:32 | 13.01606 | -68.47322 | 18242 ft | 348 kts | 237° |
| 2026-04-16 22:33 | 13.00246 | -68.49376 | 17807 ft | 346 kts | 237° |
| 2026-04-16 22:33 | 12.98893 | -68.51418 | 17413 ft | 344 kts | 237° |
| 2026-04-16 22:33 | 12.97548 | -68.53448 | 17030 ft | 342 kts | 237° |
| 2026-04-16 22:33 | 12.96211 | -68.55463 | 16630 ft | 341 kts | 237° |
| 2026-04-16 22:34 | 12.94899 | -68.57443 | 16257 ft | 339 kts | 237° |
| 2026-04-16 22:34 | 12.93573 | -68.59441 | 15864 ft | 337 kts | 237° |
| 2026-04-16 22:34 | 12.92262 | -68.61418 | 15480 ft | 335 kts | 237° |
| 2026-04-16 22:34 | 12.90951 | -68.63395 | 15104 ft | 334 kts | 237° |
| 2026-04-16 22:35 | 12.89646 | -68.65360 | 14702 ft | 332 kts | 237° |
| 2026-04-16 22:35 | 12.88353 | -68.67308 | 14307 ft | 329 kts | 237° |
| 2026-04-16 22:35 | 12.87066 | -68.69248 | 13940 ft | 328 kts | 236° |
| 2026-04-16 22:35 | 12.85801 | -68.71152 | 13561 ft | 327 kts | 236° |
| 2026-04-16 22:36 | 12.84527 | -68.73070 | 13150 ft | 324 kts | 236° |
| 2026-04-16 22:36 | 12.83259 | -68.74978 | 12775 ft | 322 kts | 236° |
| 2026-04-16 22:36 | 12.81997 | -68.76878 | 12394 ft | 323 kts | 236° |
| 2026-04-16 22:36 | 12.80735 | -68.78777 | 12027 ft | 322 kts | 237° |
| 2026-04-16 22:37 | 12.79476 | -68.80670 | 11649 ft | 320 kts | 236° |
| 2026-04-16 22:37 | 12.78223 | -68.82555 | 11265 ft | 320 kts | 236° |
| 2026-04-16 22:37 | 12.76982 | -68.84420 | 10900 ft | 320 kts | 236° |
| 2026-04-16 22:37 | 12.75728 | -68.86306 | 10517 ft | 320 kts | 236° |
| 2026-04-16 22:38 | 12.74482 | -68.88179 | 10255 ft | 313 kts | 236° |
| 2026-04-16 22:38 | 12.73284 | -68.89978 | 10163 ft | 299 kts | 236° |
| 2026-04-16 22:38 | 12.72135 | -68.91705 | 10044 ft | 289 kts | 236° |
| 2026-04-16 22:38 | 12.71018 | -68.93382 | 9914 ft | 280 kts | 236° |
| 2026-04-16 22:39 | 12.69916 | -68.95038 | 9669 ft | 287 kts | 236° |
| 2026-04-16 22:39 | 12.68784 | -68.96738 | 9347 ft | 295 kts | 236° |
| 2026-04-16 22:39 | 12.67624 | -68.98480 | 9050 ft | 296 kts | 236° |
| 2026-04-16 22:39 | 12.66459 | -69.00229 | 8757 ft | 296 kts | 236° |
| 2026-04-16 22:40 | 12.65296 | -69.01973 | 8473 ft | 296 kts | 235° |
| 2026-04-16 22:40 | 12.64136 | -69.03713 | 8189 ft | 295 kts | 235° |
| 2026-04-16 22:40 | 12.62991 | -69.05430 | 7896 ft | 295 kts | 235° |
| 2026-04-16 22:40 | 12.61835 | -69.07164 | 7614 ft | 295 kts | 235° |
| 2026-04-16 22:41 | 12.60672 | -69.08908 | 7324 ft | 296 kts | 234° |
| 2026-04-16 22:41 | 12.59510 | -69.10650 | 7048 ft | 295 kts | 234° |
| 2026-04-16 22:41 | 12.58353 | -69.12384 | 6748 ft | 293 kts | 234° |
| 2026-04-16 22:41 | 12.57222 | -69.14080 | 6469 ft | 292 kts | 234° |
| 2026-04-16 22:42 | 12.55955 | -69.15697 | 6172 ft | 289 kts | 220° |
| 2026-04-16 22:42 | 12.54231 | -69.16678 | 5878 ft | 282 kts | 191° |
| 2026-04-16 22:42 | 12.52307 | -69.16837 | 5614 ft | 276 kts | 176° |
| 2026-04-16 22:42 | 12.50388 | -69.16739 | 5339 ft | 275 kts | 174° |
| 2026-04-16 22:43 | 12.48480 | -69.16607 | 5078 ft | 274 kts | 173° |
| 2026-04-16 22:43 | 12.46583 | -69.16480 | 4808 ft | 273 kts | 174° |
| 2026-04-16 22:43 | 12.44693 | -69.16361 | 4538 ft | 271 kts | 173° |
| 2026-04-16 22:43 | 12.42839 | -69.16248 | 4277 ft | 269 kts | 174° |
| 2026-04-16 22:44 | 12.40967 | -69.16137 | 4022 ft | 268 kts | 174° |
| 2026-04-16 22:44 | 12.39114 | -69.16029 | 3757 ft | 265 kts | 173° |
| 2026-04-16 22:44 | 12.37286 | -69.15923 | 3559 ft | 263 kts | 174° |
| 2026-04-16 22:44 | 12.35461 | -69.15818 | 3356 ft | 261 kts | 173° |
| 2026-04-16 22:45 | 12.33652 | -69.15714 | 3103 ft | 260 kts | 173° |
| 2026-04-16 22:45 | 12.31849 | -69.15610 | 2888 ft | 259 kts | 173° |
| 2026-04-16 22:45 | 12.30058 | -69.15507 | 2601 ft | 257 kts | 173° |
| 2026-04-16 22:45 | 12.28268 | -69.15403 | 2499 ft | 258 kts | 173° |
| 2026-04-16 22:46 | 12.26479 | -69.15300 | 2484 ft | 252 kts | 173° |
| 2026-04-16 22:46 | 12.24794 | -69.15066 | 2349 ft | 238 kts | 159° |
| 2026-04-16 22:46 | 12.23400 | -69.14281 | 2237 ft | 224 kts | 135° |
| 2026-04-16 22:46 | 12.22538 | -69.13019 | 2092 ft | 214 kts | 111° |
| 2026-04-16 22:47 | 12.22134 | -69.11607 | 2010 ft | 204 kts | 103° |
| 2026-04-16 22:47 | 12.21849 | -69.10226 | 1987 ft | 192 kts | 101° |
| 2026-04-16 22:47 | 12.21592 | -69.08925 | 1989 ft | 178 kts | 102° |
| 2026-04-16 22:47 | 12.21356 | -69.07746 | 2000 ft | 160 kts | 101° |
| 2026-04-16 22:48 | 12.21135 | -69.06663 | 1997 ft | 153 kts | 103° |
| 2026-04-16 22:48 | 12.20918 | -69.05617 | 1818 ft | 151 kts | 103° |
| 2026-04-16 22:48 | 12.20698 | -69.04559 | 1493 ft | 153 kts | 103° |
| 2026-04-16 22:48 | 12.20477 | -69.03504 | 1232 ft | 150 kts | 103° |
| 2026-04-16 22:49 | 12.20265 | -69.02488 | 1002 ft | 141 kts | 102° |
| 2026-04-16 22:49 | 12.20065 | -69.01537 | 823 ft | 133 kts | 103° |
| 2026-04-16 22:49 | 12.19872 | -69.00632 | 723 ft | 129 kts | 103° |
| 2026-04-16 22:49 | 12.19679 | -68.99719 | 569 ft | 133 kts | 103° |
| 2026-04-16 22:50 | 12.19478 | -68.98776 | 304 ft | 137 kts | 102° |
| 2026-04-16 22:50 | 12.19275 | -68.97843 | 222 ft | 136 kts | 103° |
| 2026-04-16 22:50 | 12.19078 | -68.96901 | 119 ft | 134 kts | 103° |
| 2026-04-16 22:50 | 12.18892 | -68.95997 | 57 ft | 120 kts | 102° |
| 2026-04-16 22:51 | 12.18736 | -68.95254 | 46 ft | 87 kts | 102° |
| 2026-04-16 22:51 | 12.18649 | -68.94836 | 48 ft | 43 kts | 102° |
| 2026-04-16 22:51 | 12.18597 | -68.94592 | 51 ft | 24 kts | 102° |
| 2026-04-16 22:51 | 12.18569 | -68.94488 | 48 ft | 10 kts | 127° |
| 2026-04-16 22:52 | 12.18501 | -68.94470 | 47 ft | 11 kts | 185° |
| 2026-04-16 22:52 | 12.18425 | -68.94489 | 48 ft | 7 kts | 218° |
| 2026-04-16 22:52 | 12.18416 | -68.94543 | 49 ft | 9 kts | 276° |
| 2026-04-16 22:52 | 12.18426 | -68.94614 | 46 ft | 11 kts | 281° |
| 2026-04-16 22:53 | 12.18444 | -68.94701 | 49 ft | 14 kts | 282° |
| 2026-04-16 22:53 | 12.18465 | -68.94803 | 48 ft | 14 kts | 282° |
| 2026-04-16 22:53 | 12.18487 | -68.94912 | 48 ft | 17 kts | 282° |
| 2026-04-16 22:53 | 12.18513 | -68.95035 | 48 ft | 19 kts | 282° |
| 2026-04-16 22:54 | 12.18542 | -68.95176 | 47 ft | 21 kts | 282° |
| 2026-04-16 22:54 | 12.18575 | -68.95324 | 47 ft | 22 kts | 283° |
| 2026-04-16 22:54 | 12.18608 | -68.95481 | 47 ft | 24 kts | 282° |
| 2026-04-16 22:54 | 12.18643 | -68.95653 | 46 ft | 26 kts | 282° |
| 2026-04-16 22:55 | 12.18670 | -68.95782 | 46 ft | 13 kts | 282° |
| 2026-04-16 22:55 | 12.18671 | -68.95847 | 46 ft | 7 kts | 234° |
| 2026-04-16 22:55 | 12.18629 | -68.95863 | 47 ft | 2 kts | 191° |
| 2026-04-16 22:55 | 12.18612 | -68.95866 | 47 ft | 4 kts | 191° |
| 2026-04-16 22:56 | 12.18586 | -68.95871 | 47 ft | 3 kts | 192° |
| 2026-04-16 22:56 | 12.18572 | -68.95874 | 47 ft | 0 kts | 192° |
| 2026-04-16 22:56 | 12.18571 | -68.95875 | 47 ft | 0 kts | 192° |